La Salle, Illinois
Current Conditions -  °F | °C
As of 3:15 PM on Tuesday 21 Oct 2014 (Local Time) from KVYS Reporting Station
Scattered Clouds Scattered Clouds  
Wind Chill: 57°   Ceiling: Unl
Heat Index: 57°   Visibility: 10mi
Dew Point: 39°   Wind: 9mph
Humidity: 50%   Direction: 50°NE
Pressure: 30.17"   Gusts: NA
Location:  41.33°N, 89.09°W
Report Text: KVYS 212015Z AUTO 05008KT 10SM SCT043 14/04 A3017 RMK AO2 T01410037
Loading
Personal Weather Stations






























Interactive Weather Map New forecast layout! Learn more

10-Day Weather Forecast

Advertisements
Track Severe Weather on mobile